עמוד ראשי
METAR-TAF:

METAR-TAF

שדות תעופה :

Apalachicola, פלורידה, ארצות הברית

קו רוחב: 29-43-37N, קו אורך: 085-01-29W, גובה: 6מטר

תצפית מזג אוויר נוכחית

הדו"ח נערך לפני 30דקות, בשעה 18:53 UTC
רוח 14קשר מכיוון מזרח/דרום-מזרח עם משבים עד 26קשר
טמפרטורת 31 צלסיוס
לחות 63%
לחץ 1017 hPa
ראות: 16.1קילומטר
מעט עננים בגובה 2700רגל

METAR: KAAF 171853Z AUTO 11014G26KT 10SM FEW027 31/23 A3002 RMK AO2 PK WND 10027/1835 SLP166 T03060228 $

זמן: 15:23 (19:23 UTC)


TAF: חסר

תצפיות ותחזיות מזג אוויר לגבי יותר מ- 4,000 שדות תעופה ברחבי העולם. דוחות METAR ו- TAF.

התחנות הזמינות מסומנות בנקודות צהובות ואדומות על גבי המפה.

העבר את העכבר לנקודה הצבעונית על מנת לראות את שם התחנה.

לאחר מכן, לחץ כדי לראות את תוכן ואת תחזיות מזג האוויר.

כדי לשנות את המפה: לחץ על הכפתורים הירוקים עם הפלוס השחור כדי להתקרב; על הכפתור הירוק עם המקף כדי להתרחק; או בחיצים הירוקים למפות סמוכות.


METAR-TAF: